createdAt,value
2023-01-03T00:00:47.490Z,101767.78
2023-01-03T00:03:33.505Z,101751.38
2023-01-03T00:06:27.301Z,101750.25
2023-01-03T00:09:16.175Z,101758.84
2023-01-03T00:12:01.413Z,101767.38
2023-01-03T00:14:46.635Z,101751.84
2023-01-03T00:17:31.554Z,101755.00
2023-01-03T00:20:16.533Z,101748.94
2023-01-03T00:23:01.585Z,101753.84
2023-01-03T00:25:46.828Z,101750.72
2023-01-03T00:28:32.199Z,101755.41
2023-01-03T00:31:17.525Z,101759.81
2023-01-03T00:34:03.029Z,101760.69
2023-01-03T00:36:48.221Z,101761.09
2023-01-03T00:39:33.697Z,101759.56
2023-01-03T00:42:19.209Z,101771.97
2023-01-03T00:45:04.554Z,101771.81
2023-01-03T00:47:49.436Z,101770.56
2023-01-03T00:50:37.722Z,101777.50
2023-01-03T00:53:23.951Z,101779.50
2023-01-03T00:56:12.333Z,101790.81
2023-01-03T00:58:57.947Z,101793.47
2023-01-03T01:01:47.441Z,101789.06
2023-01-03T01:04:33.052Z,101798.94
2023-01-03T01:07:18.658Z,101795.47
2023-01-03T01:10:04.364Z,101804.72
2023-01-03T01:12:49.423Z,101803.44
2023-01-03T01:15:34.467Z,101799.19
2023-01-03T01:18:19.828Z,101801.94
2023-01-03T01:21:06.489Z,101814.63
2023-01-03T01:23:52.054Z,101813.16
2023-01-03T01:26:37.707Z,101818.59
2023-01-03T01:29:22.753Z,101816.19
2023-01-03T01:32:07.804Z,101823.25
2023-01-03T01:34:53.200Z,101828.53
2023-01-03T01:37:38.037Z,101819.97
2023-01-03T01:40:22.888Z,101826.91
2023-01-03T01:43:20.675Z,101826.53
2023-01-03T01:46:28.048Z,101832.63
2023-01-03T01:49:20.599Z,101838.56
2023-01-03T01:52:06.451Z,101835.53
2023-01-03T01:54:53.674Z,101828.53
2023-01-03T01:57:40.766Z,101831.13
2023-01-03T02:00:25.837Z,101827.66
2023-01-03T02:03:12.437Z,101836.19
2023-01-03T02:06:00.527Z,101828.31
2023-01-03T02:08:45.754Z,101836.09
2023-01-03T02:11:58.093Z,101838.66
2023-01-03T02:15:20.804Z,101830.34
2023-01-03T02:18:21.514Z,101825.44
2023-01-03T02:21:37.159Z,101827.13
2023-01-03T02:24:41.091Z,101835.31
2023-01-03T02:28:05.483Z,101836.81
2023-01-03T02:31:25.185Z,101837.50
2023-01-03T02:34:40.486Z,101844.53
2023-01-03T02:37:39.671Z,101852.56
2023-01-03T02:40:44.001Z,101857.78
2023-01-03T02:43:50.796Z,101857.31
2023-01-03T02:47:14.933Z,101859.72
2023-01-03T02:50:04.285Z,101858.09
2023-01-03T02:52:52.955Z,101866.94
2023-01-03T02:55:39.043Z,101863.81
2023-01-03T02:58:28.395Z,101862.75
2023-01-03T03:01:16.488Z,101865.66
2023-01-03T03:04:03.193Z,101864.50
2023-01-03T03:07:21.513Z,101861.66
2023-01-03T03:10:08.786Z,101860.75
2023-01-03T03:12:59.677Z,101857.31
2023-01-03T03:15:54.828Z,101872.44
2023-01-03T03:18:58.649Z,101880.97
2023-01-03T03:21:43.953Z,101880.16
2023-01-03T03:24:30.799Z,101890.69
2023-01-03T03:27:20.244Z,101878.97
2023-01-03T03:30:12.037Z,101880.06
2023-01-03T03:33:00.227Z,101878.09
2023-01-03T03:35:50.791Z,101880.44
2023-01-03T03:38:42.936Z,101876.78
2023-01-03T03:41:45.069Z,101881.91
2023-01-03T03:44:40.065Z,101886.81
2023-01-03T03:47:52.353Z,101889.19
2023-01-03T03:50:49.708Z,101890.25
2023-01-03T03:53:37.328Z,101891.94
2023-01-03T03:56:26.324Z,101886.09
2023-01-03T03:59:12.145Z,101902.38
2023-01-03T04:01:59.529Z,101894.69
2023-01-03T04:04:48.296Z,101895.72
2023-01-03T04:07:34.791Z,101906.09
2023-01-03T04:10:21.083Z,101900.06
2023-01-03T04:13:06.292Z,101902.06
2023-01-03T04:15:50.986Z,101907.97
2023-01-03T04:18:35.817Z,101911.22
2023-01-03T04:21:21.329Z,101900.25
2023-01-03T04:24:07.151Z,101903.78
2023-01-03T04:26:52.144Z,101908.66
2023-01-03T04:29:39.602Z,101904.31
2023-01-03T04:32:24.766Z,101912.72
2023-01-03T04:35:10.047Z,101912.47
2023-01-03T04:37:55.500Z,101914.22
2023-01-03T04:40:40.773Z,101916.72
2023-01-03T04:43:25.604Z,101909.81
2023-01-03T04:46:11.255Z,101914.94
2023-01-03T04:48:56.666Z,101912.19
2023-01-03T04:51:42.313Z,101916.28
2023-01-03T04:54:27.608Z,101917.06
2023-01-03T04:57:12.533Z,101916.19
2023-01-03T04:59:57.419Z,101919.38
2023-01-03T05:02:42.362Z,101921.84
2023-01-03T05:05:27.240Z,101918.41
2023-01-03T05:08:12.276Z,101925.03
2023-01-03T05:10:57.520Z,101919.22
2023-01-03T05:13:42.959Z,101919.22
2023-01-03T05:16:27.924Z,101920.69
2023-01-03T05:19:13.599Z,101915.38
2023-01-03T05:21:58.567Z,101921.94
2023-01-03T05:24:44.058Z,101921.78
2023-01-03T05:27:29.188Z,101924.25
2023-01-03T05:30:14.325Z,101929.19
2023-01-03T05:32:59.242Z,101934.03
2023-01-03T05:35:47.841Z,101936.25
2023-01-03T05:38:33.318Z,101943.75
2023-01-03T05:41:18.481Z,101947.13
2023-01-03T05:44:03.580Z,101940.22
2023-01-03T05:46:49.139Z,101955.41
2023-01-03T05:49:34.168Z,101954.34
2023-01-03T05:52:19.224Z,101951.09
2023-01-03T05:55:04.718Z,101954.00
2023-01-03T05:57:49.868Z,101958.94
2023-01-03T06:00:35.392Z,101964.94
2023-01-03T06:03:20.585Z,101958.63
2023-01-03T06:06:07.110Z,101965.03
2023-01-03T06:08:52.569Z,101966.72
2023-01-03T06:11:39.774Z,101966.25
2023-01-03T06:14:24.927Z,101963.22
2023-01-03T06:17:09.851Z,101967.38
2023-01-03T06:19:55.281Z,101972.13
2023-01-03T06:22:40.250Z,101974.31
2023-01-03T06:25:26.020Z,101972.63
2023-01-03T06:28:10.933Z,101969.97
2023-01-03T06:30:55.775Z,101966.22
2023-01-03T06:33:41.418Z,101976.47
2023-01-03T06:36:26.871Z,101975.59
2023-01-03T06:39:12.055Z,101982.91
2023-01-03T06:41:57.238Z,101973.16
2023-01-03T06:44:42.196Z,101980.16
2023-01-03T06:47:27.588Z,101982.72
2023-01-03T06:50:12.960Z,101995.13
2023-01-03T06:52:57.971Z,101985.59
2023-01-03T06:55:44.490Z,101989.03
2023-01-03T06:58:30.069Z,101992.84
2023-01-03T07:01:15.438Z,101986.31
2023-01-03T07:04:02.467Z,101993.44
2023-01-03T07:06:48.031Z,101989.53
2023-01-03T07:09:32.972Z,101988.84
2023-01-03T07:12:20.869Z,101988.72
2023-01-03T07:15:06.205Z,101989.66
2023-01-03T07:17:50.891Z,101986.59
2023-01-03T07:20:35.869Z,101996.34
2023-01-03T07:23:21.116Z,101990.97
2023-01-03T07:26:06.309Z,101989.00
2023-01-03T07:28:52.513Z,101984.38
2023-01-03T07:31:41.715Z,101997.47
2023-01-03T07:34:26.982Z,101995.06
2023-01-03T07:37:12.298Z,101994.19
2023-01-03T07:39:57.493Z,102003.81
2023-01-03T07:42:42.388Z,102002.44
2023-01-03T07:45:27.263Z,102017.03
2023-01-03T07:48:13.310Z,102015.66
2023-01-03T07:50:58.976Z,102018.09
2023-01-03T07:53:44.461Z,102011.78
2023-01-03T07:56:29.757Z,102026.94
2023-01-03T07:59:15.561Z,102025.19
2023-01-03T08:02:00.857Z,102026.34
2023-01-03T08:04:46.446Z,102022.44
2023-01-03T08:07:31.792Z,102026.75
2023-01-03T08:10:18.089Z,102028.31
2023-01-03T08:13:03.733Z,102028.50
2023-01-03T08:15:56.637Z,102035.44
2023-01-03T08:18:42.683Z,102027.25
2023-01-03T08:21:27.866Z,102025.34
2023-01-03T08:24:12.799Z,102034.84
2023-01-03T08:26:58.188Z,102023.97
2023-01-03T08:29:45.645Z,102031.56
2023-01-03T08:32:33.716Z,102026.16
2023-01-03T08:35:19.853Z,102039.22
2023-01-03T08:38:08.388Z,102042.78
2023-01-03T08:40:54.832Z,102045.66
2023-01-03T08:43:44.245Z,102042.63
2023-01-03T08:46:30.413Z,102050.03
2023-01-03T08:49:15.836Z,102045.50
2023-01-03T08:52:01.142Z,102057.03
2023-01-03T08:54:46.514Z,102053.19
2023-01-03T08:57:31.610Z,102048.38
2023-01-03T09:00:17.001Z,102052.00
2023-01-03T09:03:02.212Z,102049.63
2023-01-03T09:05:47.542Z,102049.22
2023-01-03T09:08:34.443Z,102041.34
2023-01-03T09:11:19.283Z,102025.41
2023-01-03T09:14:04.755Z,102024.22
2023-01-03T09:16:50.184Z,102032.59
2023-01-03T09:19:35.620Z,102020.97
2023-01-03T09:22:20.521Z,102024.97
2023-01-03T09:25:05.684Z,102024.78
2023-01-03T09:27:50.921Z,102027.81
2023-01-03T09:30:35.740Z,102023.38
2023-01-03T09:33:21.543Z,102009.94
2023-01-03T09:36:07.124Z,102009.97
2023-01-03T09:38:52.051Z,102010.63
2023-01-03T09:41:39.321Z,102012.41
2023-01-03T09:44:24.440Z,102000.16
2023-01-03T09:47:18.857Z,102001.72
2023-01-03T09:50:29.627Z,102002.25
2023-01-03T09:53:19.699Z,101994.16
2023-01-03T09:56:04.875Z,101991.31
2023-01-03T09:58:58.518Z,101986.81
2023-01-03T10:01:59.282Z,101976.34
2023-01-03T10:04:50.544Z,101982.03
2023-01-03T10:07:54.280Z,101983.81
2023-01-03T10:10:58.895Z,101971.38
2023-01-03T10:14:05.475Z,101965.81
2023-01-03T10:17:16.769Z,101940.16
2023-01-03T10:20:04.969Z,101939.13
2023-01-03T10:22:51.786Z,101929.88
2023-01-03T10:25:40.835Z,101913.09
2023-01-03T10:28:37.670Z,101915.97
2023-01-03T10:31:29.363Z,101913.47
2023-01-03T10:34:14.270Z,101914.03
2023-01-03T10:36:59.201Z,101901.19
2023-01-03T10:39:45.090Z,101900.53
2023-01-03T10:42:34.079Z,101896.13
2023-01-03T10:45:21.041Z,101889.59
2023-01-03T10:48:06.417Z,101893.16
2023-01-03T10:50:53.969Z,101893.47
2023-01-03T10:53:42.081Z,101901.28
2023-01-03T10:56:30.295Z,101903.13
2023-01-03T10:59:22.516Z,101900.59
2023-01-03T11:02:10.888Z,101907.75
2023-01-03T11:05:10.667Z,101908.56
2023-01-03T11:08:03.003Z,101897.31
2023-01-03T11:10:50.027Z,101907.19
2023-01-03T11:13:42.336Z,101920.16
2023-01-03T11:16:32.117Z,101916.75
2023-01-03T11:19:17.586Z,101917.72
2023-01-03T11:22:20.075Z,101914.69
2023-01-03T11:25:33.530Z,101920.75
2023-01-03T11:28:18.438Z,101919.88
2023-01-03T11:31:16.444Z,101914.31
2023-01-03T11:34:23.415Z,101917.44
2023-01-03T11:37:11.725Z,101906.94
2023-01-03T11:40:33.821Z,101889.38
2023-01-03T11:43:22.169Z,101890.09
2023-01-03T11:46:22.832Z,101886.06
2023-01-03T11:49:07.995Z,101870.59
2023-01-03T11:51:56.530Z,101867.56
2023-01-03T11:54:41.867Z,101873.09
2023-01-03T11:57:51.852Z,101873.53
2023-01-03T12:00:45.906Z,101862.09
2023-01-03T12:03:49.617Z,101851.88
2023-01-03T12:07:03.565Z,101848.84
2023-01-03T12:10:11.332Z,101838.41
2023-01-03T12:13:02.691Z,101819.00
2023-01-03T12:16:01.842Z,101826.81
2023-01-03T12:19:04.503Z,101823.38
2023-01-03T12:22:01.534Z,101795.63
2023-01-03T12:25:00.735Z,101798.44
2023-01-03T12:28:11.114Z,101813.66
2023-01-03T12:31:07.562Z,101804.09
2023-01-03T12:34:10.960Z,101803.91
2023-01-03T12:37:16.126Z,101794.53
2023-01-03T12:40:42.834Z,101774.88
2023-01-03T12:43:52.786Z,101782.03
2023-01-03T12:46:44.398Z,101779.38
2023-01-03T12:49:43.970Z,101786.38
2023-01-03T12:52:32.843Z,101795.53
2023-01-03T12:55:41.063Z,101806.31
2023-01-03T12:58:38.901Z,101808.66
2023-01-03T13:01:40.860Z,101807.94
2023-01-03T13:04:28.818Z,101809.50
2023-01-03T13:07:26.386Z,101804.47
2023-01-03T13:10:19.344Z,101808.66
2023-01-03T13:13:05.410Z,101803.47
2023-01-03T13:15:50.614Z,101817.38
2023-01-03T13:18:36.178Z,101809.38
2023-01-03T13:22:09.837Z,101807.53
2023-01-03T13:25:26.914Z,101811.00
2023-01-03T13:28:18.506Z,101821.19
2023-01-03T13:31:15.579Z,101822.81
2023-01-03T13:34:25.394Z,101826.22
2023-01-03T13:37:13.590Z,101827.09
2023-01-03T13:40:03.827Z,101833.25
2023-01-03T13:43:01.552Z,101836.91
2023-01-03T13:45:46.695Z,101831.75
2023-01-03T13:48:40.081Z,101836.78
2023-01-03T13:51:27.246Z,101840.19
2023-01-03T13:54:12.264Z,101832.00
2023-01-03T13:57:03.414Z,101831.47
2023-01-03T13:59:48.896Z,101823.41
2023-01-03T14:02:34.053Z,101820.16
2023-01-03T14:05:22.212Z,101791.81
2023-01-03T14:08:20.991Z,101787.75
2023-01-03T14:11:32.974Z,101799.28
2023-01-03T14:14:24.114Z,101809.13
2023-01-03T14:17:17.638Z,101806.16
2023-01-03T14:20:10.425Z,101809.06
2023-01-03T14:23:00.503Z,101820.53
2023-01-03T14:25:46.169Z,101825.13
2023-01-03T14:28:33.746Z,101828.75
2023-01-03T14:31:23.064Z,101842.44
2023-01-03T14:34:21.523Z,101847.69
2023-01-03T14:37:12.941Z,101848.50
2023-01-03T14:40:05.045Z,101855.31
2023-01-03T14:42:50.448Z,101857.03
2023-01-03T14:45:36.376Z,101866.31
2023-01-03T14:48:22.924Z,101869.19
2023-01-03T14:51:09.906Z,101875.03
2023-01-03T14:53:56.468Z,101867.03
2023-01-03T14:56:44.566Z,101867.81
2023-01-03T14:59:31.942Z,101875.25
2023-01-03T15:02:18.356Z,101871.44
2023-01-03T15:05:03.791Z,101875.63
2023-01-03T15:07:48.989Z,101870.84
2023-01-03T15:10:44.387Z,101870.50
2023-01-03T15:13:49.951Z,101879.19
2023-01-03T15:16:41.268Z,101880.56
2023-01-03T15:19:29.469Z,101871.06
2023-01-03T15:22:20.235Z,101867.53
2023-01-03T15:25:15.897Z,101855.38
2023-01-03T15:28:22.744Z,101847.66
2023-01-03T15:31:45.639Z,101853.41
2023-01-03T15:34:33.748Z,101857.81
2023-01-03T15:37:22.911Z,101859.53
2023-01-03T15:40:10.649Z,101856.22
2023-01-03T15:42:58.683Z,101856.47
2023-01-03T15:45:44.107Z,101852.81
2023-01-03T15:48:31.385Z,101843.19
2023-01-03T15:51:16.470Z,101838.78
2023-01-03T15:54:01.369Z,101838.91
2023-01-03T15:56:59.844Z,101835.38
2023-01-03T15:59:45.345Z,101838.03
2023-01-03T16:02:31.657Z,101833.34
2023-01-03T16:05:22.026Z,101835.91
2023-01-03T16:08:34.378Z,101827.41
2023-01-03T16:11:31.524Z,101825.88
2023-01-03T16:14:23.021Z,101820.91
2023-01-03T16:17:17.019Z,101818.19
2023-01-03T16:20:04.482Z,101820.72
2023-01-03T16:23:01.006Z,101817.19
2023-01-03T16:25:47.146Z,101832.94
2023-01-03T16:28:32.228Z,101830.97
2023-01-03T16:31:31.209Z,101840.47
2023-01-03T16:34:20.600Z,101831.78
2023-01-03T16:37:08.834Z,101838.63
2023-01-03T16:39:54.475Z,101819.56
2023-01-03T16:42:39.271Z,101802.00
2023-01-03T16:45:24.626Z,101795.00
2023-01-03T16:48:16.512Z,101785.53
2023-01-03T16:51:01.755Z,101788.44
2023-01-03T16:53:48.070Z,101791.22
2023-01-03T16:56:33.433Z,101792.09
2023-01-03T16:59:20.591Z,101795.59
2023-01-03T17:02:07.366Z,101799.94
2023-01-03T17:04:52.939Z,101789.66
2023-01-03T17:07:38.915Z,101788.00
2023-01-03T17:10:34.329Z,101793.88
2023-01-03T17:13:36.244Z,101805.94
2023-01-03T17:16:21.529Z,101808.28
2023-01-03T17:19:52.192Z,101812.69
2023-01-03T17:22:22.350Z,101814.94
2023-01-03T17:25:10.636Z,101819.84
2023-01-03T17:27:58.360Z,101819.13
2023-01-03T17:30:43.818Z,101821.41
2023-01-03T17:33:34.075Z,101829.47
2023-01-03T17:36:31.418Z,101840.59
2023-01-03T17:39:17.146Z,101846.78
2023-01-03T17:42:02.548Z,101858.56
2023-01-03T17:44:49.207Z,101864.78
2023-01-03T17:47:41.674Z,101868.97
2023-01-03T17:50:29.655Z,101857.56
2023-01-03T17:53:18.479Z,101848.09
2023-01-03T17:56:03.474Z,101846.81
2023-01-03T17:58:55.977Z,101843.22
2023-01-03T18:01:41.999Z,101836.09
2023-01-03T18:04:44.151Z,101842.81
2023-01-03T18:07:32.148Z,101859.44
2023-01-03T18:10:21.744Z,101867.03
2023-01-03T18:13:19.093Z,101876.19
2023-01-03T18:16:05.056Z,101876.03
2023-01-03T18:18:51.223Z,101876.69
2023-01-03T18:21:37.411Z,101872.94
2023-01-03T18:24:29.079Z,101889.13
2023-01-03T18:27:15.189Z,101877.72
2023-01-03T18:30:03.136Z,101887.38
2023-01-03T18:32:48.409Z,101877.91
2023-01-03T18:35:38.033Z,101885.06
2023-01-03T18:38:28.994Z,101875.94
2023-01-03T18:41:25.555Z,101877.00
2023-01-03T18:44:22.755Z,101869.75
2023-01-03T18:47:13.815Z,101861.00
2023-01-03T18:49:59.079Z,101868.38
2023-01-03T18:52:45.305Z,101854.63
2023-01-03T18:55:34.166Z,101866.69
2023-01-03T18:58:34.814Z,101856.09
2023-01-03T19:01:21.373Z,101847.47
2023-01-03T19:04:08.140Z,101841.19
2023-01-03T19:06:53.525Z,101848.09
2023-01-03T19:09:38.851Z,101844.13
2023-01-03T19:12:24.833Z,101831.19
2023-01-03T19:15:21.556Z,101837.41
2023-01-03T19:18:09.574Z,101827.28
2023-01-03T19:20:54.834Z,101821.50
2023-01-03T19:23:41.085Z,101808.59
2023-01-03T19:26:38.296Z,101806.72
2023-01-03T19:29:27.138Z,101805.91
2023-01-03T19:32:19.166Z,101804.31
2023-01-03T19:35:14.415Z,101788.97
2023-01-03T19:37:59.469Z,101783.59
2023-01-03T19:40:45.387Z,101778.63
2023-01-03T19:43:30.971Z,101769.13
2023-01-03T19:46:17.929Z,101769.84
2023-01-03T19:49:03.200Z,101761.28
2023-01-03T19:51:49.276Z,101751.31
2023-01-03T19:54:34.514Z,101748.69
2023-01-03T19:57:23.969Z,101734.81
2023-01-03T20:00:17.057Z,101728.53
2023-01-03T20:03:06.367Z,101725.63
2023-01-03T20:05:54.004Z,101734.44
2023-01-03T20:08:39.115Z,101713.13
2023-01-03T20:11:24.311Z,101719.38
2023-01-03T20:14:18.063Z,101710.63
2023-01-03T20:17:03.289Z,101710.63
2023-01-03T20:19:49.201Z,101700.34
2023-01-03T20:25:40.584Z,101687.44
2023-01-03T20:28:25.683Z,101679.88
2023-01-03T20:31:14.019Z,101675.38
2023-01-03T20:34:03.929Z,101666.88
2023-01-03T20:36:49.294Z,101665.03
2023-01-03T20:39:35.620Z,101652.34
2023-01-03T20:42:21.298Z,101661.81
2023-01-03T20:45:06.908Z,101652.44
2023-01-03T20:47:52.508Z,101653.53
2023-01-03T20:50:37.642Z,101641.81
2023-01-03T20:53:26.590Z,101635.13
2023-01-03T20:56:13.076Z,101636.19
2023-01-03T20:58:58.132Z,101623.34
2023-01-03T21:01:44.019Z,101614.66
2023-01-03T21:04:29.634Z,101623.25
2023-01-03T21:07:34.929Z,101609.53
2023-01-03T21:10:26.639Z,101610.63
2023-01-03T21:13:11.493Z,101609.91
2023-01-03T21:15:57.106Z,101605.66
2023-01-03T21:18:42.162Z,101598.66
2023-01-03T21:21:30.107Z,101588.63
2023-01-03T21:24:17.581Z,101586.53
2023-01-03T21:27:02.552Z,101588.81
2023-01-03T21:29:47.504Z,101579.19
2023-01-03T21:32:32.306Z,101581.41
2023-01-03T21:35:22.310Z,101589.88
2023-01-03T21:38:09.952Z,101592.06
2023-01-03T21:40:55.074Z,101589.41
2023-01-03T21:43:39.883Z,101591.56
2023-01-03T21:46:26.069Z,101590.41
2023-01-03T21:49:11.361Z,101599.94
2023-01-03T21:51:56.851Z,101607.66
2023-01-03T21:54:42.176Z,101615.25
2023-01-03T21:57:27.053Z,101622.66
2023-01-03T22:00:12.795Z,101612.38
2023-01-03T22:03:00.380Z,101601.31
2023-01-03T22:05:45.982Z,101601.72
2023-01-03T22:08:31.385Z,101599.06
2023-01-03T22:11:16.657Z,101605.97
2023-01-03T22:14:01.889Z,101605.09
2023-01-03T22:16:47.367Z,101606.22
2023-01-03T22:19:32.683Z,101602.81
2023-01-03T22:22:17.693Z,101593.53
2023-01-03T22:25:03.110Z,101586.78
2023-01-03T22:27:48.811Z,101585.09
2023-01-03T22:30:34.073Z,101574.00
2023-01-03T22:33:19.054Z,101574.84
2023-01-03T22:36:04.679Z,101570.88
2023-01-03T22:38:52.413Z,101562.72
2023-01-03T22:41:37.292Z,101572.84
2023-01-03T22:44:22.190Z,101571.44
2023-01-03T22:47:07.190Z,101576.53
2023-01-03T22:49:52.087Z,101579.81
2023-01-03T22:52:38.386Z,101576.22
2023-01-03T22:55:30.003Z,101561.53
2023-01-03T22:58:16.871Z,101566.09
2023-01-03T23:01:10.553Z,101562.88
2023-01-03T23:03:58.942Z,101560.16
2023-01-03T23:06:44.091Z,101542.03
2023-01-03T23:09:29.013Z,101540.66
2023-01-03T23:12:13.974Z,101539.72
2023-01-03T23:14:58.925Z,101535.88
2023-01-03T23:17:44.367Z,101526.03
2023-01-03T23:20:35.964Z,101522.63
2023-01-03T23:23:21.067Z,101523.66
2023-01-03T23:26:06.035Z,101512.38
2023-01-03T23:28:59.029Z,101510.53
2023-01-03T23:31:44.708Z,101510.44
2023-01-03T23:34:29.984Z,101506.06
2023-01-03T23:37:15.011Z,101492.66
2023-01-03T23:40:00.194Z,101501.94
2023-01-03T23:42:47.115Z,101495.22
2023-01-03T23:45:32.452Z,101483.31
2023-01-03T23:48:17.888Z,101483.63
2023-01-03T23:51:09.535Z,101465.66
2023-01-03T23:53:54.682Z,101464.13
2023-01-03T23:56:39.815Z,101450.00
2023-01-03T23:59:25.105Z,101451.06
